aviador You're here:

LBBG Decoded Metar

BOURGAS in BULGARIA
Report Time2018-07-16 13:30:00
UTC Time2018-07-16 14:06:20
Flight Rules vfr VFR
Wind310° at 09 kt
W.Decomp.*RWY 22: 0.6 kt HW 9.0 kt RCW
W.Rank310° ranks 27
Current wind is above 310° avg. (7.3)
Visibility9999 m
Phenomena:N/A
Clouds:N/A
Expected CloudBase > 6,000 ft AGL from Temp-Dew spread
CeilingNone
Temp30°C (ISA +15)
Dew Point15°C (40% RH)
Heat Index29.7°C
AAT28.3°C
QNH1009 hPa
Density Alt2,195 ft
Elevation92 ft
Report Wrong Elevation
Raw Report
METAR LBBG 161330Z 31009KT 290V350 CAVOK 30/15 Q1009 NOSIG=

Extra information for LBBG:More info

Metar Taf Metar & Taf Last 4 Metars F.Rules Stats Wind Profile Meteogram Temp Stats Airport Information Weather charts Add Link Nearby VenuesMetar ALERT Operation Metar Decoded Social comments